createdAt,value
2022-11-07T00:01:58.613Z,3.70
2022-11-07T00:04:29.466Z,3.75
2022-11-07T00:06:57.135Z,3.17
2022-11-07T00:09:24.613Z,3.35
2022-11-07T00:11:51.572Z,3.42
2022-11-07T00:14:23.396Z,3.95
2022-11-07T00:16:52.798Z,3.08
2022-11-07T00:19:22.067Z,4.07
2022-11-07T00:21:49.832Z,2.28
2022-11-07T00:24:18.085Z,3.70
2022-11-07T00:26:46.790Z,4.80
2022-11-07T00:29:19.789Z,4.25
2022-11-07T00:31:48.063Z,4.53
2022-11-07T00:34:15.500Z,4.75
2022-11-07T00:36:42.452Z,3.97
2022-11-07T00:39:11.494Z,4.68
2022-11-07T00:41:38.491Z,4.93
2022-11-07T00:44:05.488Z,4.53
2022-11-07T00:46:32.484Z,4.18
2022-11-07T00:48:59.378Z,3.72
2022-11-07T00:51:29.119Z,3.55
2022-11-07T00:53:55.989Z,3.85
2022-11-07T00:56:25.354Z,4.32
2022-11-07T00:58:56.047Z,4.50
2022-11-07T01:01:30.210Z,4.17
2022-11-07T01:04:16.211Z,3.65
2022-11-07T01:06:45.245Z,4.43
2022-11-07T01:09:19.923Z,4.60
2022-11-07T01:11:49.852Z,4.40
2022-11-07T01:14:23.506Z,5.68
2022-11-07T01:16:51.122Z,3.35
2022-11-07T01:19:21.902Z,4.25
2022-11-07T01:21:48.965Z,3.47
2022-11-07T01:24:19.096Z,3.55
2022-11-07T01:26:49.740Z,4.63
2022-11-07T01:29:20.332Z,3.20
2022-11-07T01:31:47.567Z,3.58
2022-11-07T01:34:14.617Z,3.33
2022-11-07T01:36:41.544Z,3.03
2022-11-07T01:39:10.908Z,2.95
2022-11-07T01:41:41.002Z,4.50
2022-11-07T01:44:07.807Z,3.70
2022-11-07T01:46:43.188Z,3.42
2022-11-07T01:49:29.302Z,3.75
2022-11-07T01:52:06.713Z,4.82
2022-11-07T01:54:57.365Z,4.35
2022-11-07T01:57:30.610Z,5.13
2022-11-07T02:00:00.677Z,3.55
2022-11-07T02:02:28.803Z,3.30
2022-11-07T02:04:58.569Z,4.07
2022-11-07T02:07:27.839Z,3.38
2022-11-07T02:09:55.518Z,3.85
2022-11-07T02:12:25.850Z,6.10
2022-11-07T02:14:53.350Z,4.47
2022-11-07T02:17:20.475Z,4.45
2022-11-07T02:19:53.852Z,5.38
2022-11-07T02:22:33.603Z,3.65
2022-11-07T02:25:04.951Z,2.55
2022-11-07T02:27:35.112Z,3.42
2022-11-07T02:30:20.630Z,3.20
2022-11-07T02:32:49.999Z,3.40
2022-11-07T02:35:42.393Z,4.15
2022-11-07T02:38:33.181Z,2.65
2022-11-07T02:41:26.246Z,3.17
2022-11-07T02:44:10.207Z,4.65
2022-11-07T02:46:37.518Z,3.13
2022-11-07T02:49:06.823Z,4.63
2022-11-07T02:51:33.659Z,2.85
2022-11-07T02:54:00.468Z,2.67
2022-11-07T02:56:27.518Z,2.45
2022-11-07T02:58:57.414Z,3.05
2022-11-07T03:01:25.263Z,3.03
2022-11-07T03:03:55.426Z,2.92
2022-11-07T03:06:25.355Z,2.58
2022-11-07T03:08:57.363Z,2.35
2022-11-07T03:11:24.205Z,2.28
2022-11-07T03:13:51.600Z,2.85
2022-11-07T03:16:20.175Z,3.55
2022-11-07T03:18:47.334Z,3.13
2022-11-07T03:21:14.292Z,2.47
2022-11-07T03:23:41.288Z,2.70
2022-11-07T03:26:08.173Z,4.30
2022-11-07T03:28:38.142Z,3.35
2022-11-07T03:31:09.299Z,2.90
2022-11-07T03:33:38.756Z,3.08
2022-11-07T03:36:10.627Z,2.95
2022-11-07T03:38:39.991Z,2.33
2022-11-07T03:41:06.857Z,2.95
2022-11-07T03:43:33.746Z,5.03
2022-11-07T03:46:00.593Z,3.35
2022-11-07T03:48:27.432Z,2.33
2022-11-07T03:50:56.822Z,2.92
2022-11-07T03:53:25.930Z,3.38
2022-11-07T03:55:56.140Z,2.88
2022-11-07T03:58:32.087Z,3.28
2022-11-07T04:00:59.025Z,4.97
2022-11-07T04:03:30.861Z,4.35
2022-11-07T04:05:58.473Z,4.20
2022-11-07T04:08:28.075Z,3.05
2022-11-07T04:10:57.444Z,2.95
2022-11-07T04:13:42.897Z,3.13
2022-11-07T04:16:30.101Z,3.67
2022-11-07T04:19:02.672Z,4.05
2022-11-07T04:21:34.324Z,2.67
2022-11-07T04:26:48.919Z,4.43
2022-11-07T04:29:15.755Z,5.10
2022-11-07T04:31:42.619Z,7.80
2022-11-07T04:34:09.520Z,4.10
2022-11-07T04:36:36.395Z,7.30
2022-11-07T04:39:05.442Z,2.85
2022-11-07T04:41:36.949Z,3.53
2022-11-07T04:44:06.261Z,2.35
2022-11-07T04:46:35.254Z,2.20
2022-11-07T04:49:02.068Z,2.42
2022-11-07T04:51:28.887Z,2.60
2022-11-07T04:53:55.781Z,3.60
2022-11-07T04:56:25.055Z,3.15
2022-11-07T04:58:55.148Z,2.55
2022-11-07T05:01:21.989Z,4.38
2022-11-07T05:03:48.842Z,2.78
2022-11-07T05:06:15.788Z,8.00
2022-11-07T05:08:42.661Z,2.92
2022-11-07T05:11:09.501Z,3.03
2022-11-07T05:13:38.623Z,3.00
2022-11-07T05:16:08.041Z,2.65
2022-11-07T05:18:34.874Z,2.78
2022-11-07T05:21:01.704Z,2.28
2022-11-07T05:23:28.554Z,3.03
2022-11-07T05:25:55.695Z,2.70
2022-11-07T05:28:36.823Z,3.35
2022-11-07T05:31:06.235Z,2.60
2022-11-07T05:33:33.430Z,4.00
2022-11-07T05:36:21.893Z,2.80
2022-11-07T05:38:54.463Z,2.45
2022-11-07T05:41:22.270Z,3.97
2022-11-07T05:43:51.792Z,3.95
2022-11-07T05:46:18.603Z,4.18
2022-11-07T05:48:45.480Z,4.57
2022-11-07T05:51:14.584Z,4.18
2022-11-07T05:53:43.734Z,5.13
2022-11-07T05:56:12.703Z,4.90
2022-11-07T05:58:44.328Z,6.07
2022-11-07T06:03:40.171Z,3.90
2022-11-07T06:06:07.208Z,3.90
2022-11-07T06:08:36.748Z,5.07
2022-11-07T06:11:06.569Z,5.10
2022-11-07T06:13:33.390Z,4.10
2022-11-07T06:16:00.229Z,4.13
2022-11-07T06:18:27.148Z,2.78
2022-11-07T06:20:56.528Z,3.45
2022-11-07T06:23:23.390Z,3.03
2022-11-07T06:25:51.248Z,3.50
2022-11-07T06:28:18.410Z,3.63
2022-11-07T06:30:45.522Z,4.45
2022-11-07T06:33:19.050Z,7.63
2022-11-07T06:35:50.943Z,17.92
2022-11-07T06:40:44.888Z,15.55
2022-11-07T06:43:16.339Z,25.55
2022-11-07T06:45:46.831Z,6.40
2022-11-07T06:48:14.049Z,10.35
2022-11-07T06:50:40.934Z,5.40
2022-11-07T06:53:12.958Z,8.75
2022-11-07T06:55:41.156Z,7.43
2022-11-07T06:58:08.267Z,6.00
2022-11-07T07:00:37.070Z,8.60
2022-11-07T07:03:04.810Z,6.72
2022-11-07T07:05:36.522Z,16.48
2022-11-07T07:10:39.715Z,16.38
2022-11-07T07:13:06.788Z,21.30
2022-11-07T07:15:47.767Z,22.13
2022-11-07T07:18:20.149Z,15.30
2022-11-07T07:20:49.330Z,10.48
2022-11-07T07:23:21.180Z,4.95
2022-11-07T07:25:52.839Z,7.45
2022-11-07T07:28:19.711Z,6.20
2022-11-07T07:30:51.552Z,13.25
2022-11-07T07:33:23.684Z,8.23
2022-11-07T07:35:53.013Z,5.47
2022-11-07T07:38:19.855Z,6.72
2022-11-07T07:40:49.208Z,8.68
2022-11-07T07:43:16.409Z,8.90
2022-11-07T07:45:43.501Z,10.73
2022-11-07T07:48:12.788Z,8.98
2022-11-07T07:50:44.189Z,6.90
2022-11-07T07:53:13.369Z,10.27
2022-11-07T07:55:40.289Z,11.13
2022-11-07T07:58:14.354Z,11.95
2022-11-07T08:00:46.409Z,15.43
2022-11-07T08:03:16.261Z,13.52
2022-11-07T08:05:56.926Z,12.05
2022-11-07T08:08:24.749Z,15.55
2022-11-07T08:10:57.850Z,21.05
2022-11-07T08:13:25.903Z,21.70
2022-11-07T08:15:53.666Z,22.27
2022-11-07T08:18:24.258Z,20.83
2022-11-07T08:20:54.376Z,13.05
2022-11-07T08:23:22.388Z,8.15
2022-11-07T08:25:55.718Z,10.82
2022-11-07T08:28:25.701Z,14.23
2022-11-07T08:31:14.223Z,9.65
2022-11-07T08:33:43.553Z,8.98
2022-11-07T08:36:10.719Z,8.50
2022-11-07T08:38:37.697Z,9.23
2022-11-07T08:41:10.165Z,9.32
2022-11-07T08:43:39.504Z,10.98
2022-11-07T08:46:06.560Z,7.82
2022-11-07T08:48:33.734Z,8.15
2022-11-07T08:51:03.047Z,5.80
2022-11-07T08:53:33.212Z,7.88
2022-11-07T08:56:09.480Z,7.30
2022-11-07T08:58:38.773Z,5.75
2022-11-07T09:01:11.865Z,7.47
2022-11-07T09:03:51.683Z,7.55
2022-11-07T09:06:22.769Z,5.70
2022-11-07T09:08:56.646Z,6.90
2022-11-07T09:11:26.957Z,7.72
2022-11-07T09:13:55.468Z,8.45
2022-11-07T09:16:23.739Z,10.98
2022-11-07T09:18:53.322Z,13.13
2022-11-07T09:21:23.070Z,9.45
2022-11-07T09:23:53.600Z,10.38
2022-11-07T09:26:20.813Z,12.07
2022-11-07T09:28:51.624Z,9.65
2022-11-07T09:31:19.941Z,11.73
2022-11-07T09:33:46.778Z,14.93
2022-11-07T09:36:16.703Z,12.95
2022-11-07T09:38:44.011Z,10.02
2022-11-07T09:41:33.779Z,16.42
2022-11-07T09:44:31.613Z,10.18
2022-11-07T09:47:29.388Z,8.88
2022-11-07T09:49:59.841Z,10.63
2022-11-07T09:52:42.273Z,9.60
2022-11-07T09:55:37.918Z,8.88
2022-11-07T09:58:19.316Z,6.32
2022-11-07T10:00:46.696Z,8.18
2022-11-07T10:03:14.237Z,12.32
2022-11-07T10:06:26.219Z,14.98
2022-11-07T10:09:02.002Z,12.45
2022-11-07T10:11:40.415Z,13.48
2022-11-07T10:14:36.699Z,7.30
2022-11-07T10:17:10.146Z,6.50
2022-11-07T10:20:01.229Z,5.63
2022-11-07T10:23:19.508Z,5.80
2022-11-07T10:25:59.779Z,3.15
2022-11-07T10:28:29.429Z,3.03
2022-11-07T10:30:59.792Z,4.00
2022-11-07T10:33:47.134Z,2.83
2022-11-07T10:36:25.021Z,2.47
2022-11-07T10:38:55.527Z,4.70
2022-11-07T10:41:31.909Z,14.23
2022-11-07T10:44:14.135Z,4.47
2022-11-07T10:46:48.907Z,3.38
2022-11-07T10:49:24.311Z,3.80
2022-11-07T10:51:52.335Z,3.47
2022-11-07T10:54:30.790Z,1.77
2022-11-07T10:57:16.423Z,4.90
2022-11-07T10:59:52.638Z,2.63
2022-11-07T11:02:32.458Z,2.03
2022-11-07T11:05:02.795Z,4.13
2022-11-07T11:07:41.016Z,2.08
2022-11-07T11:10:20.007Z,4.85
2022-11-07T11:12:48.319Z,2.70
2022-11-07T11:15:21.798Z,2.35
2022-11-07T11:18:03.108Z,4.57
2022-11-07T11:21:01.556Z,2.53
2022-11-07T11:23:35.506Z,1.50
2022-11-07T11:26:16.112Z,2.40
2022-11-07T11:29:02.222Z,2.00
2022-11-07T11:31:37.008Z,3.47
2022-11-07T11:34:11.071Z,2.83
2022-11-07T11:36:45.795Z,1.98
2022-11-07T11:39:29.833Z,2.97
2022-11-07T11:41:59.045Z,3.50
2022-11-07T11:44:44.121Z,2.53
2022-11-07T11:47:34.536Z,1.80
2022-11-07T11:50:19.691Z,3.08
2022-11-07T11:52:50.474Z,3.42
2022-11-07T11:55:23.218Z,3.60
2022-11-07T11:58:18.071Z,1.92
2022-11-07T12:01:16.215Z,4.68
2022-11-07T12:04:12.313Z,2.28
2022-11-07T12:06:40.631Z,4.40
2022-11-07T12:09:26.686Z,1.30
2022-11-07T12:12:16.487Z,1.75
2022-11-07T12:15:13.061Z,2.53
2022-11-07T12:18:14.057Z,2.38
2022-11-07T12:20:55.755Z,1.33
2022-11-07T12:26:36.537Z,2.25
2022-11-07T12:29:43.315Z,1.80
2022-11-07T12:32:17.548Z,2.33
2022-11-07T12:35:18.469Z,2.15
2022-11-07T12:38:00.364Z,2.20
2022-11-07T12:40:36.019Z,1.83
2022-11-07T12:43:40.714Z,2.47
2022-11-07T12:46:30.177Z,2.47
2022-11-07T12:49:05.003Z,2.80
2022-11-07T12:52:08.069Z,2.17
2022-11-07T12:54:51.814Z,1.80
2022-11-07T12:57:24.698Z,2.80
2022-11-07T13:00:07.864Z,3.97
2022-11-07T13:02:57.285Z,2.95
2022-11-07T13:05:48.948Z,1.67
2022-11-07T13:08:34.772Z,1.23
2022-11-07T13:11:09.789Z,1.95
2022-11-07T13:14:28.239Z,1.88
2022-11-07T13:17:00.271Z,1.83
2022-11-07T13:19:42.971Z,2.45
2022-11-07T13:22:15.996Z,1.80
2022-11-07T13:25:15.106Z,2.78
2022-11-07T13:27:44.081Z,2.88
2022-11-07T13:30:14.021Z,1.67
2022-11-07T13:32:42.339Z,1.92
2022-11-07T13:35:22.820Z,1.58
2022-11-07T13:38:15.053Z,2.28
2022-11-07T13:40:48.399Z,2.35
2022-11-07T13:43:38.240Z,1.52
2022-11-07T13:46:36.024Z,2.22
2022-11-07T13:49:17.740Z,1.80
2022-11-07T13:51:50.986Z,1.17
2022-11-07T13:54:29.153Z,2.20
2022-11-07T13:57:31.071Z,2.35
2022-11-07T14:02:35.346Z,1.40
2022-11-07T14:05:17.299Z,1.98
2022-11-07T14:08:17.924Z,1.58
2022-11-07T14:10:48.533Z,2.13
2022-11-07T14:13:30.974Z,2.53
2022-11-07T14:16:06.462Z,1.70
2022-11-07T14:18:42.083Z,2.38
2022-11-07T14:21:22.027Z,1.42
2022-11-07T14:23:53.614Z,2.50
2022-11-07T14:29:00.792Z,2.38
2022-11-07T14:31:40.533Z,3.30
2022-11-07T14:34:15.980Z,2.97
2022-11-07T14:36:54.672Z,3.15
2022-11-07T14:39:25.574Z,1.77
2022-11-07T14:41:56.451Z,2.58
2022-11-07T14:44:55.282Z,2.05
2022-11-07T14:47:31.774Z,2.15
2022-11-07T14:50:04.406Z,1.90
2022-11-07T14:52:57.650Z,1.55
2022-11-07T14:55:43.078Z,4.20
2022-11-07T14:58:11.429Z,2.05
2022-11-07T15:00:38.747Z,2.40
2022-11-07T15:03:05.738Z,2.33
2022-11-07T15:05:53.374Z,2.30
2022-11-07T15:08:30.421Z,3.28
2022-11-07T15:11:17.177Z,2.33
2022-11-07T15:13:48.045Z,3.17
2022-11-07T15:16:18.422Z,3.03
2022-11-07T15:18:49.193Z,2.13
2022-11-07T15:21:38.139Z,3.10
2022-11-07T15:24:38.597Z,2.83
2022-11-07T15:27:19.328Z,5.07
2022-11-07T15:29:56.983Z,6.37
2022-11-07T15:32:32.747Z,8.30
2022-11-07T15:35:17.436Z,5.78
2022-11-07T15:38:01.668Z,8.48
2022-11-07T15:42:59.110Z,8.10
2022-11-07T15:45:26.086Z,6.38
2022-11-07T15:47:52.959Z,4.05
2022-11-07T15:50:23.166Z,4.50
2022-11-07T15:52:51.133Z,5.47
2022-11-07T15:55:24.014Z,5.82
2022-11-07T15:57:56.140Z,4.53
2022-11-07T16:00:25.809Z,3.83
2022-11-07T16:02:55.274Z,4.88
2022-11-07T16:05:22.295Z,3.22
2022-11-07T16:07:51.450Z,3.70
2022-11-07T16:10:25.058Z,3.38
2022-11-07T16:12:53.322Z,3.60
2022-11-07T16:15:25.959Z,3.60
2022-11-07T16:17:52.830Z,2.78
2022-11-07T16:20:30.332Z,4.20
2022-11-07T16:22:57.823Z,3.35
2022-11-07T16:25:25.737Z,4.82
2022-11-07T16:28:03.274Z,3.80
2022-11-07T16:30:30.364Z,3.75
2022-11-07T16:32:57.267Z,4.78
2022-11-07T16:35:24.203Z,4.68
2022-11-07T16:37:53.602Z,4.13
2022-11-07T16:40:20.649Z,3.70
2022-11-07T16:42:52.140Z,2.97
2022-11-07T16:45:20.459Z,5.45
2022-11-07T16:47:47.696Z,5.03
2022-11-07T16:50:16.718Z,2.80
2022-11-07T16:52:43.692Z,5.45
2022-11-07T16:55:18.941Z,6.60
2022-11-07T16:57:46.736Z,2.80
2022-11-07T17:00:23.582Z,3.88
2022-11-07T17:02:53.105Z,5.80
2022-11-07T17:05:20.604Z,2.97
2022-11-07T17:07:50.002Z,3.58
2022-11-07T17:10:20.278Z,7.32
2022-11-07T17:12:47.126Z,5.15
2022-11-07T17:15:14.066Z,5.07
2022-11-07T17:17:41.017Z,4.43
2022-11-07T17:20:48.579Z,6.75
2022-11-07T17:23:06.995Z,6.30
2022-11-07T17:25:34.453Z,8.38
2022-11-07T17:28:04.174Z,10.48
2022-11-07T17:30:33.635Z,8.48
2022-11-07T17:33:00.523Z,10.30
2022-11-07T17:35:32.224Z,12.30
2022-11-07T17:37:59.971Z,8.85
2022-11-07T17:40:36.521Z,11.77
2022-11-07T17:43:03.475Z,18.05
2022-11-07T17:45:36.260Z,30.80
2022-11-07T17:48:03.380Z,20.75
2022-11-07T17:50:32.513Z,11.30
2022-11-07T17:52:59.354Z,6.15
2022-11-07T17:55:26.389Z,5.38
2022-11-07T17:57:56.011Z,5.95
2022-11-07T18:00:27.711Z,4.05
2022-11-07T18:02:56.972Z,5.40
2022-11-07T18:05:32.840Z,7.07
2022-11-07T18:08:00.346Z,5.70
2022-11-07T18:10:27.573Z,6.95
2022-11-07T18:12:59.096Z,7.47
2022-11-07T18:17:55.700Z,9.88
2022-11-07T18:20:25.931Z,10.70
2022-11-07T18:22:52.897Z,10.57
2022-11-07T18:25:22.163Z,12.93
2022-11-07T18:27:49.128Z,12.45
2022-11-07T18:30:16.149Z,12.00
2022-11-07T18:32:45.087Z,9.68
2022-11-07T18:35:14.040Z,13.77
2022-11-07T18:37:45.595Z,13.88
2022-11-07T18:42:46.686Z,16.35
2022-11-07T18:45:16.057Z,13.15
2022-11-07T18:47:42.940Z,11.48
2022-11-07T18:50:11.203Z,11.18
2022-11-07T18:52:41.362Z,13.23
2022-11-07T18:55:09.718Z,18.25
2022-11-07T18:57:36.603Z,10.93
2022-11-07T19:00:07.986Z,12.65
2022-11-07T19:02:41.153Z,14.43
2022-11-07T19:05:10.700Z,13.25
2022-11-07T19:07:39.857Z,13.20
2022-11-07T19:10:07.362Z,13.45
2022-11-07T19:12:39.201Z,14.38
2022-11-07T19:15:07.833Z,14.52
2022-11-07T19:17:37.231Z,14.80
2022-11-07T19:20:05.556Z,18.00
2022-11-07T19:22:32.465Z,21.38
2022-11-07T19:25:01.621Z,20.38
2022-11-07T19:27:29.691Z,16.88
2022-11-07T19:29:56.918Z,12.23
2022-11-07T19:32:23.990Z,12.48
2022-11-07T19:34:50.883Z,9.32
2022-11-07T19:37:17.757Z,11.13
2022-11-07T19:39:47.154Z,11.40
2022-11-07T19:42:14.299Z,6.38
2022-11-07T19:44:49.427Z,7.90
2022-11-07T19:47:17.626Z,7.13
2022-11-07T19:49:44.559Z,25.48
2022-11-07T19:52:11.460Z,28.45
2022-11-07T19:54:42.260Z,17.50
2022-11-07T19:57:09.562Z,15.27
2022-11-07T19:59:39.116Z,11.98
2022-11-07T20:02:31.767Z,11.07
2022-11-07T20:05:01.644Z,14.30
2022-11-07T20:07:31.510Z,17.48
2022-11-07T20:10:03.041Z,23.40
2022-11-07T20:12:29.918Z,22.27
2022-11-07T20:14:56.868Z,22.83
2022-11-07T20:17:26.007Z,21.25
2022-11-07T20:19:52.853Z,17.42
2022-11-07T20:22:21.991Z,26.08
2022-11-07T20:24:50.944Z,21.98
2022-11-07T20:27:17.820Z,22.73
2022-11-07T20:29:47.451Z,23.40
2022-11-07T20:32:14.466Z,23.27
2022-11-07T20:34:43.769Z,23.15
2022-11-07T20:37:10.719Z,21.90
2022-11-07T20:39:37.725Z,21.42
2022-11-07T20:42:04.792Z,21.63
2022-11-07T20:44:34.463Z,18.65
2022-11-07T20:47:08.306Z,16.55
2022-11-07T20:49:38.975Z,16.88
2022-11-07T20:52:09.966Z,14.23
2022-11-07T20:54:37.494Z,15.23
2022-11-07T20:57:04.982Z,12.55
2022-11-07T20:59:31.998Z,9.52
2022-11-07T21:02:03.495Z,12.35
2022-11-07T21:04:44.622Z,7.82
2022-11-07T21:07:22.630Z,6.07
2022-11-07T21:09:49.627Z,6.63
2022-11-07T21:12:19.053Z,6.40
2022-11-07T21:14:46.414Z,7.75
2022-11-07T21:17:13.439Z,6.57
2022-11-07T21:19:42.534Z,8.02
2022-11-07T21:22:09.900Z,11.30
2022-11-07T21:24:36.769Z,9.10
2022-11-07T21:27:07.019Z,10.25
2022-11-07T21:29:33.967Z,5.75
2022-11-07T21:32:06.736Z,6.88
2022-11-07T21:34:37.118Z,7.38
2022-11-07T21:37:04.912Z,6.00
2022-11-07T21:39:31.788Z,8.07
2022-11-07T21:42:01.397Z,6.57
2022-11-07T21:44:28.278Z,6.70
2022-11-07T21:46:55.146Z,7.55
2022-11-07T21:49:22.036Z,6.68
2022-11-07T21:51:51.009Z,7.72
2022-11-07T21:54:18.186Z,6.20
2022-11-07T21:56:45.057Z,9.10
2022-11-07T21:59:12.537Z,8.48
2022-11-07T22:01:40.992Z,10.38
2022-11-07T22:04:12.739Z,6.72
2022-11-07T22:06:45.349Z,6.50
2022-11-07T22:09:17.807Z,6.13
2022-11-07T22:11:48.044Z,6.75
2022-11-07T22:14:20.138Z,7.47
2022-11-07T22:16:48.631Z,6.30
2022-11-07T22:19:18.297Z,6.65
2022-11-07T22:21:45.444Z,5.82
2022-11-07T22:24:12.357Z,8.30
2022-11-07T22:26:39.327Z,8.63
2022-11-07T22:29:08.388Z,7.35
2022-11-07T22:31:36.327Z,6.78
2022-11-07T22:34:05.848Z,9.52
2022-11-07T22:36:32.859Z,8.27
2022-11-07T22:38:59.789Z,6.78
2022-11-07T22:41:29.348Z,7.90
2022-11-07T22:43:57.559Z,7.90
2022-11-07T22:46:29.916Z,8.52
2022-11-07T22:48:59.126Z,6.20
2022-11-07T22:51:37.308Z,8.90
2022-11-07T22:54:14.219Z,6.30
2022-11-07T22:56:41.678Z,11.48
2022-11-07T22:59:10.539Z,9.43
2022-11-07T23:01:41.501Z,8.18
2022-11-07T23:04:15.397Z,6.95
2022-11-07T23:06:42.584Z,8.13
2022-11-07T23:09:16.318Z,5.75
2022-11-07T23:11:47.013Z,4.47
2022-11-07T23:14:16.674Z,9.55
2022-11-07T23:16:48.093Z,5.70
2022-11-07T23:19:18.213Z,8.18
2022-11-07T23:21:48.878Z,9.07
2022-11-07T23:24:17.295Z,4.43
2022-11-07T23:26:44.455Z,11.02
2022-11-07T23:29:18.134Z,7.72
2022-11-07T23:31:47.481Z,5.30
2022-11-07T23:34:17.605Z,10.15
2022-11-07T23:36:50.286Z,10.60
2022-11-07T23:39:22.453Z,5.05
2022-11-07T23:41:49.671Z,5.25
2022-11-07T23:44:16.658Z,6.43
2022-11-07T23:47:05.748Z,5.03
2022-11-07T23:49:55.558Z,3.65
2022-11-07T23:52:22.537Z,3.22
2022-11-07T23:55:08.627Z,4.20
2022-11-07T23:57:58.679Z,2.80
